sensor_id;sensor_type;location;lat;lon;timestamp;temperature;humidity
45012;DHT22;63444;48.148;11.542;2024-01-15T00:01:29;0.80;99.90
45012;DHT22;63444;48.148;11.542;2024-01-15T00:03:55;1.50;99.90
45012;DHT22;63444;48.148;11.542;2024-01-15T00:06:21;1.60;99.90
45012;DHT22;63444;48.148;11.542;2024-01-15T00:08:46;0.90;99.90
45012;DHT22;63444;48.148;11.542;2024-01-15T00:11:12;1.30;99.90
45012;DHT22;63444;48.148;11.542;2024-01-15T00:13:37;0.90;99.90
45012;DHT22;63444;48.148;11.542;2024-01-15T00:16:04;0.90;99.90
45012;DHT22;63444;48.148;11.542;2024-01-15T00:18:30;0.90;99.90
45012;DHT22;63444;48.148;11.542;2024-01-15T00:20:55;1.60;99.90
45012;DHT22;63444;48.148;11.542;2024-01-15T00:23:22;0.90;99.90
45012;DHT22;63444;48.148;11.542;2024-01-15T00:25:47;0.90;99.90
45012;DHT22;63444;48.148;11.542;2024-01-15T00:28:13;1.70;99.90
45012;DHT22;63444;48.148;11.542;2024-01-15T00:30:39;1.60;99.90
45012;DHT22;63444;48.148;11.542;2024-01-15T00:33:04;0.90;99.90
45012;DHT22;63444;48.148;11.542;2024-01-15T00:35:30;0.80;99.90
45012;DHT22;63444;48.148;11.542;2024-01-15T00:37:56;0.80;99.90
45012;DHT22;63444;48.148;11.542;2024-01-15T00:40:21;0.80;99.90
45012;DHT22;63444;48.148;11.542;2024-01-15T00:42:47;0.80;99.90
45012;DHT22;63444;48.148;11.542;2024-01-15T00:45:13;0.80;99.90
45012;DHT22;63444;48.148;11.542;2024-01-15T00:47:38;0.80;99.90
45012;DHT22;63444;48.148;11.542;2024-01-15T00:50:04;0.80;99.90
45012;DHT22;63444;48.148;11.542;2024-01-15T00:52:30;0.80;99.90
45012;DHT22;63444;48.148;11.542;2024-01-15T00:54:56;0.80;99.90
45012;DHT22;63444;48.148;11.542;2024-01-15T00:57:21;0.70;99.90
45012;DHT22;63444;48.148;11.542;2024-01-15T00:59:47;0.80;99.90
45012;DHT22;63444;48.148;11.542;2024-01-15T01:02:13;0.70;99.90
45012;DHT22;63444;48.148;11.542;2024-01-15T01:04:40;0.60;99.90
45012;DHT22;63444;48.148;11.542;2024-01-15T01:07:06;0.70;99.90
45012;DHT22;63444;48.148;11.542;2024-01-15T01:09:31;1.10;99.90
45012;DHT22;63444;48.148;11.542;2024-01-15T01:11:57;1.00;99.90
45012;DHT22;63444;48.148;11.542;2024-01-15T01:14:23;0.70;99.90
45012;DHT22;63444;48.148;11.542;2024-01-15T01:16:48;0.60;99.90
45012;DHT22;63444;48.148;11.542;2024-01-15T01:19:14;0.50;99.90
45012;DHT22;63444;48.148;11.542;2024-01-15T01:21:40;1.10;99.90
45012;DHT22;63444;48.148;11.542;2024-01-15T01:24:06;0.50;99.90
45012;DHT22;63444;48.148;11.542;2024-01-15T01:26:31;0.30;99.90
45012;DHT22;63444;48.148;11.542;2024-01-15T01:28:57;0.40;99.90
45012;DHT22;63444;48.148;11.542;2024-01-15T01:31:23;0.30;99.90
45012;DHT22;63444;48.148;11.542;2024-01-15T01:33:49;0.30;99.90
45012;DHT22;63444;48.148;11.542;2024-01-15T01:36:14;0.20;99.90
45012;DHT22;63444;48.148;11.542;2024-01-15T01:38:41;0.80;99.90
45012;DHT22;63444;48.148;11.542;2024-01-15T01:41:06;0.20;99.90
45012;DHT22;63444;48.148;11.542;2024-01-15T01:43:32;0.20;99.90
45012;DHT22;63444;48.148;11.542;2024-01-15T01:45:58;0.30;99.90
45012;DHT22;63444;48.148;11.542;2024-01-15T01:48:25;0.20;99.90
45012;DHT22;63444;48.148;11.542;2024-01-15T01:50:57;0.10;99.90
45012;DHT22;63444;48.148;11.542;2024-01-15T01:53:24;0.10;99.90
45012;DHT22;63444;48.148;11.542;2024-01-15T01:55:51;0.20;99.90
45012;DHT22;63444;48.148;11.542;2024-01-15T01:58:17;0.40;99.90
45012;DHT22;63444;48.148;11.542;2024-01-15T02:00:44;0.10;99.90
45012;DHT22;63444;48.148;11.542;2024-01-15T02:03:09;0.10;99.90
45012;DHT22;63444;48.148;11.542;2024-01-15T02:05:35;0.30;99.90
45012;DHT22;63444;48.148;11.542;2024-01-15T02:08:01;0.10;99.90
45012;DHT22;63444;48.148;11.542;2024-01-15T02:10:27;0.10;99.90
45012;DHT22;63444;48.148;11.542;2024-01-15T02:12:52;0.10;99.90
45012;DHT22;63444;48.148;11.542;2024-01-15T02:15:18;0.00;99.90
45012;DHT22;63444;48.148;11.542;2024-01-15T02:18:00;0.00;99.90
45012;DHT22;63444;48.148;11.542;2024-01-15T02:20:27;0.00;99.90
45012;DHT22;63444;48.148;11.542;2024-01-15T02:22:53;0.00;99.90
45012;DHT22;63444;48.148;11.542;2024-01-15T02:25:19;0.00;99.90
45012;DHT22;63444;48.148;11.542;2024-01-15T02:27:44;0.30;99.90
45012;DHT22;63444;48.148;11.542;2024-01-15T02:30:12;-0.10;99.90
45012;DHT22;63444;48.148;11.542;2024-01-15T02:32:41;-0.10;99.90
45012;DHT22;63444;48.148;11.542;2024-01-15T02:35:07;-0.20;99.90
45012;DHT22;63444;48.148;11.542;2024-01-15T02:37:32;-0.30;99.90
45012;DHT22;63444;48.148;11.542;2024-01-15T02:39:58;-0.20;99.90
45012;DHT22;63444;48.148;11.542;2024-01-15T02:42:25;-0.30;99.90
45012;DHT22;63444;48.148;11.542;2024-01-15T02:44:51;-0.20;99.90
45012;DHT22;63444;48.148;11.542;2024-01-15T02:47:17;-0.20;99.90
45012;DHT22;63444;48.148;11.542;2024-01-15T02:49:42;0.50;99.90
45012;DHT22;63444;48.148;11.542;2024-01-15T02:52:08;-0.20;99.90
45012;DHT22;63444;48.148;11.542;2024-01-15T02:54:33;-0.20;99.90
45012;DHT22;63444;48.148;11.542;2024-01-15T02:56:59;-0.10;99.90
45012;DHT22;63444;48.148;11.542;2024-01-15T02:59:25;-0.10;99.90
45012;DHT22;63444;48.148;11.542;2024-01-15T03:01:50;0.00;99.90
45012;DHT22;63444;48.148;11.542;2024-01-15T03:04:16;-0.10;99.90
45012;DHT22;63444;48.148;11.542;2024-01-15T03:06:42;-0.10;99.90
45012;DHT22;63444;48.148;11.542;2024-01-15T03:09:07;-0.10;99.90
45012;DHT22;63444;48.148;11.542;2024-01-15T03:11:38;-0.10;99.90
45012;DHT22;63444;48.148;11.542;2024-01-15T03:14:04;0.50;99.90
45012;DHT22;63444;48.148;11.542;2024-01-15T03:16:30;-0.10;99.90
45012;DHT22;63444;48.148;11.542;2024-01-15T03:18:55;0.10;99.90
45012;DHT22;63444;48.148;11.542;2024-01-15T03:21:23;0.70;99.90
45012;DHT22;63444;48.148;11.542;2024-01-15T03:23:48;0.40;99.90
45012;DHT22;63444;48.148;11.542;2024-01-15T03:26:14;0.00;99.90
45012;DHT22;63444;48.148;11.542;2024-01-15T03:28:39;0.10;99.90
45012;DHT22;63444;48.148;11.542;2024-01-15T03:31:05;0.10;99.90
45012;DHT22;63444;48.148;11.542;2024-01-15T03:33:31;0.30;99.90
45012;DHT22;63444;48.148;11.542;2024-01-15T03:35:56;0.10;99.90
45012;DHT22;63444;48.148;11.542;2024-01-15T03:38:23;0.10;99.90
45012;DHT22;63444;48.148;11.542;2024-01-15T03:40:49;0.20;99.90
45012;DHT22;63444;48.148;11.542;2024-01-15T03:43:14;0.10;99.90
45012;DHT22;63444;48.148;11.542;2024-01-15T03:45:40;0.00;99.90
45012;DHT22;63444;48.148;11.542;2024-01-15T03:48:06;0.10;99.90
45012;DHT22;63444;48.148;11.542;2024-01-15T03:50:31;0.10;99.90
45012;DHT22;63444;48.148;11.542;2024-01-15T03:52:57;0.10;99.90
45012;DHT22;63444;48.148;11.542;2024-01-15T03:55:22;0.10;99.90
45012;DHT22;63444;48.148;11.542;2024-01-15T03:57:48;0.50;99.90
45012;DHT22;63444;48.148;11.542;2024-01-15T04:00:14;0.50;99.90
45012;DHT22;63444;48.148;11.542;2024-01-15T04:02:43;0.20;99.90
45012;DHT22;63444;48.148;11.542;2024-01-15T04:05:09;0.20;99.90
45012;DHT22;63444;48.148;11.542;2024-01-15T04:07:35;0.10;99.90
45012;DHT22;63444;48.148;11.542;2024-01-15T04:10:00;0.20;99.90
45012;DHT22;63444;48.148;11.542;2024-01-15T04:12:26;0.20;99.90
45012;DHT22;63444;48.148;11.542;2024-01-15T04:14:52;0.20;99.90
45012;DHT22;63444;48.148;11.542;2024-01-15T04:17:17;0.20;99.90
45012;DHT22;63444;48.148;11.542;2024-01-15T04:19:46;0.20;99.90
45012;DHT22;63444;48.148;11.542;2024-01-15T04:22:13;0.50;99.90
45012;DHT22;63444;48.148;11.542;2024-01-15T04:24:39;0.20;99.90
45012;DHT22;63444;48.148;11.542;2024-01-15T04:27:05;0.20;99.90
45012;DHT22;63444;48.148;11.542;2024-01-15T04:29:31;0.20;99.90
45012;DHT22;63444;48.148;11.542;2024-01-15T04:31:57;0.20;99.90
45012;DHT22;63444;48.148;11.542;2024-01-15T04:34:22;0.20;99.90
45012;DHT22;63444;48.148;11.542;2024-01-15T04:36:48;0.10;99.90
45012;DHT22;63444;48.148;11.542;2024-01-15T04:39:14;0.10;99.90
45012;DHT22;63444;48.148;11.542;2024-01-15T04:41:39;0.50;99.90
45012;DHT22;63444;48.148;11.542;2024-01-15T04:44:05;0.10;99.90
45012;DHT22;63444;48.148;11.542;2024-01-15T04:46:30;0.20;99.90
45012;DHT22;63444;48.148;11.542;2024-01-15T04:48:56;0.10;99.90
45012;DHT22;63444;48.148;11.542;2024-01-15T04:51:22;0.20;99.90
45012;DHT22;63444;48.148;11.542;2024-01-15T04:53:47;0.20;99.90
45012;DHT22;63444;48.148;11.542;2024-01-15T04:56:13;0.30;99.90
45012;DHT22;63444;48.148;11.542;2024-01-15T04:58:39;0.30;99.90
45012;DHT22;63444;48.148;11.542;2024-01-15T05:01:04;0.20;99.90
45012;DHT22;63444;48.148;11.542;2024-01-15T05:03:30;0.30;99.90
45012;DHT22;63444;48.148;11.542;2024-01-15T05:05:55;0.30;99.90
45012;DHT22;63444;48.148;11.542;2024-01-15T05:08:21;1.20;99.90
45012;DHT22;63444;48.148;11.542;2024-01-15T05:10:47;0.80;99.90
45012;DHT22;63444;48.148;11.542;2024-01-15T05:13:13;0.20;99.90
45012;DHT22;63444;48.148;11.542;2024-01-15T05:15:38;0.20;99.90
45012;DHT22;63444;48.148;11.542;2024-01-15T05:18:04;0.20;99.90
45012;DHT22;63444;48.148;11.542;2024-01-15T05:20:30;0.30;99.90
45012;DHT22;63444;48.148;11.542;2024-01-15T05:22:56;0.30;99.90
45012;DHT22;63444;48.148;11.542;2024-01-15T05:25:21;0.20;99.90
45012;DHT22;63444;48.148;11.542;2024-01-15T05:27:47;0.20;99.90
45012;DHT22;63444;48.148;11.542;2024-01-15T05:30:13;0.20;99.90
45012;DHT22;63444;48.148;11.542;2024-01-15T05:32:39;0.20;99.90
45012;DHT22;63444;48.148;11.542;2024-01-15T05:35:05;0.40;99.90
45012;DHT22;63444;48.148;11.542;2024-01-15T05:37:30;0.20;99.90
45012;DHT22;63444;48.148;11.542;2024-01-15T05:39:56;0.20;99.90
45012;DHT22;63444;48.148;11.542;2024-01-15T05:42:22;0.20;99.90
45012;DHT22;63444;48.148;11.542;2024-01-15T05:44:47;0.20;99.90
45012;DHT22;63444;48.148;11.542;2024-01-15T05:47:13;0.20;99.90
45012;DHT22;63444;48.148;11.542;2024-01-15T05:49:38;0.60;99.90
45012;DHT22;63444;48.148;11.542;2024-01-15T05:52:04;0.20;99.90
45012;DHT22;63444;48.148;11.542;2024-01-15T05:54:30;0.20;99.90
45012;DHT22;63444;48.148;11.542;2024-01-15T05:56:55;0.20;99.90
45012;DHT22;63444;48.148;11.542;2024-01-15T05:59:21;0.20;99.90
45012;DHT22;63444;48.148;11.542;2024-01-15T06:01:47;0.20;99.90
45012;DHT22;63444;48.148;11.542;2024-01-15T06:04:12;0.20;99.90
45012;DHT22;63444;48.148;11.542;2024-01-15T06:06:38;0.20;99.90
45012;DHT22;63444;48.148;11.542;2024-01-15T06:09:03;0.20;99.90
45012;DHT22;63444;48.148;11.542;2024-01-15T06:11:34;0.60;99.90
45012;DHT22;63444;48.148;11.542;2024-01-15T06:14:00;0.20;99.90
45012;DHT22;63444;48.148;11.542;2024-01-15T06:16:28;0.20;99.90
45012;DHT22;63444;48.148;11.542;2024-01-15T06:18:54;0.50;99.90
45012;DHT22;63444;48.148;11.542;2024-01-15T06:21:19;0.20;99.90
45012;DHT22;63444;48.148;11.542;2024-01-15T06:23:45;0.20;99.90
45012;DHT22;63444;48.148;11.542;2024-01-15T06:26:14;0.20;99.90
45012;DHT22;63444;48.148;11.542;2024-01-15T06:28:40;0.20;99.90
45012;DHT22;63444;48.148;11.542;2024-01-15T06:31:07;0.20;99.90
45012;DHT22;63444;48.148;11.542;2024-01-15T06:33:32;0.40;99.90
45012;DHT22;63444;48.148;11.542;2024-01-15T06:35:58;0.70;99.90
45012;DHT22;63444;48.148;11.542;2024-01-15T06:38:24;0.20;99.90
45012;DHT22;63444;48.148;11.542;2024-01-15T06:40:50;0.20;99.90
45012;DHT22;63444;48.148;11.542;2024-01-15T06:43:17;0.20;99.90
45012;DHT22;63444;48.148;11.542;2024-01-15T06:45:43;0.70;99.90
45012;DHT22;63444;48.148;11.542;2024-01-15T06:48:09;0.20;99.90
45012;DHT22;63444;48.148;11.542;2024-01-15T06:50:35;0.20;99.90
45012;DHT22;63444;48.148;11.542;2024-01-15T06:53:01;0.30;99.90
45012;DHT22;63444;48.148;11.542;2024-01-15T06:55:26;0.20;99.90
45012;DHT22;63444;48.148;11.542;2024-01-15T06:57:53;0.30;99.90
45012;DHT22;63444;48.148;11.542;2024-01-15T07:00:18;0.70;99.90
45012;DHT22;63444;48.148;11.542;2024-01-15T07:02:45;0.30;99.90
45012;DHT22;63444;48.148;11.542;2024-01-15T07:05:11;0.40;99.90
45012;DHT22;63444;48.148;11.542;2024-01-15T07:07:37;0.30;99.90
45012;DHT22;63444;48.148;11.542;2024-01-15T07:10:03;0.90;99.90
45012;DHT22;63444;48.148;11.542;2024-01-15T07:12:29;0.30;99.90
45012;DHT22;63444;48.148;11.542;2024-01-15T07:14:56;0.30;99.90
45012;DHT22;63444;48.148;11.542;2024-01-15T07:17:22;0.30;99.90
45012;DHT22;63444;48.148;11.542;2024-01-15T07:19:47;0.30;99.90
45012;DHT22;63444;48.148;11.542;2024-01-15T07:22:13;0.30;99.90
45012;DHT22;63444;48.148;11.542;2024-01-15T07:24:40;0.70;99.90
45012;DHT22;63444;48.148;11.542;2024-01-15T07:27:06;0.60;99.90
45012;DHT22;63444;48.148;11.542;2024-01-15T07:29:31;0.40;99.90
45012;DHT22;63444;48.148;11.542;2024-01-15T07:32:01;0.40;99.90
45012;DHT22;63444;48.148;11.542;2024-01-15T07:34:27;0.30;99.90
45012;DHT22;63444;48.148;11.542;2024-01-15T07:36:53;0.30;99.90
45012;DHT22;63444;48.148;11.542;2024-01-15T07:39:18;0.10;99.90
45012;DHT22;63444;48.148;11.542;2024-01-15T07:41:44;0.60;99.90
45012;DHT22;63444;48.148;11.542;2024-01-15T07:44:09;0.40;99.90
45012;DHT22;63444;48.148;11.542;2024-01-15T07:46:35;0.40;99.90
45012;DHT22;63444;48.148;11.542;2024-01-15T07:49:01;0.40;99.90
45012;DHT22;63444;48.148;11.542;2024-01-15T07:51:26;0.40;99.90
45012;DHT22;63444;48.148;11.542;2024-01-15T07:53:55;0.50;99.90
45012;DHT22;63444;48.148;11.542;2024-01-15T07:56:21;0.50;99.90
45012;DHT22;63444;48.148;11.542;2024-01-15T07:58:47;0.50;99.90
45012;DHT22;63444;48.148;11.542;2024-01-15T08:01:12;1.00;99.90
45012;DHT22;63444;48.148;11.542;2024-01-15T08:03:38;0.50;99.90
45012;DHT22;63444;48.148;11.542;2024-01-15T08:06:05;0.50;99.90
45012;DHT22;63444;48.148;11.542;2024-01-15T08:08:31;0.50;99.90
45012;DHT22;63444;48.148;11.542;2024-01-15T08:10:56;1.10;99.90
45012;DHT22;63444;48.148;11.542;2024-01-15T08:13:22;0.50;99.90
45012;DHT22;63444;48.148;11.542;2024-01-15T08:15:48;0.50;99.90
45012;DHT22;63444;48.148;11.542;2024-01-15T08:18:13;0.60;99.90
45012;DHT22;63444;48.148;11.542;2024-01-15T08:20:39;0.60;99.90
45012;DHT22;63444;48.148;11.542;2024-01-15T08:23:05;0.50;99.90
45012;DHT22;63444;48.148;11.542;2024-01-15T08:25:31;0.90;99.90
45012;DHT22;63444;48.148;11.542;2024-01-15T08:27:57;0.50;99.90
45012;DHT22;63444;48.148;11.542;2024-01-15T08:30:26;1.10;99.90
45012;DHT22;63444;48.148;11.542;2024-01-15T08:32:56;0.50;99.90
45012;DHT22;63444;48.148;11.542;2024-01-15T08:35:22;0.50;99.90
45012;DHT22;63444;48.148;11.542;2024-01-15T08:37:54;0.60;99.90
45012;DHT22;63444;48.148;11.542;2024-01-15T08:40:20;0.50;99.90
45012;DHT22;63444;48.148;11.542;2024-01-15T08:42:46;0.60;99.90
45012;DHT22;63444;48.148;11.542;2024-01-15T08:45:13;0.60;99.90
45012;DHT22;63444;48.148;11.542;2024-01-15T08:47:39;0.60;99.90
45012;DHT22;63444;48.148;11.542;2024-01-15T08:50:05;0.70;99.90
45012;DHT22;63444;48.148;11.542;2024-01-15T08:52:31;0.60;99.90
45012;DHT22;63444;48.148;11.542;2024-01-15T08:54:57;0.60;99.90
45012;DHT22;63444;48.148;11.542;2024-01-15T08:57:23;0.60;99.90
45012;DHT22;63444;48.148;11.542;2024-01-15T08:59:48;0.70;99.90
45012;DHT22;63444;48.148;11.542;2024-01-15T09:02:14;0.70;99.90
45012;DHT22;63444;48.148;11.542;2024-01-15T09:04:40;0.80;99.90
45012;DHT22;63444;48.148;11.542;2024-01-15T09:07:07;0.70;99.90
45012;DHT22;63444;48.148;11.542;2024-01-15T09:09:33;0.70;99.90
45012;DHT22;63444;48.148;11.542;2024-01-15T09:12:00;0.70;99.90
45012;DHT22;63444;48.148;11.542;2024-01-15T09:14:25;0.80;99.90
45012;DHT22;63444;48.148;11.542;2024-01-15T09:16:52;0.90;99.90
45012;DHT22;63444;48.148;11.542;2024-01-15T09:19:18;1.00;99.90
45012;DHT22;63444;48.148;11.542;2024-01-15T09:21:43;0.70;99.90
45012;DHT22;63444;48.148;11.542;2024-01-15T09:24:09;0.80;99.90
45012;DHT22;63444;48.148;11.542;2024-01-15T09:26:35;0.70;99.90
45012;DHT22;63444;48.148;11.542;2024-01-15T09:29:00;0.80;99.90
45012;DHT22;63444;48.148;11.542;2024-01-15T09:31:26;0.70;99.90
45012;DHT22;63444;48.148;11.542;2024-01-15T09:33:52;0.70;99.90
45012;DHT22;63444;48.148;11.542;2024-01-15T09:36:21;0.80;99.90
45012;DHT22;63444;48.148;11.542;2024-01-15T09:38:48;1.10;99.90
45012;DHT22;63444;48.148;11.542;2024-01-15T09:41:14;0.80;99.90
45012;DHT22;63444;48.148;11.542;2024-01-15T09:43:40;0.90;99.90
45012;DHT22;63444;48.148;11.542;2024-01-15T09:46:06;0.80;99.90
45012;DHT22;63444;48.148;11.542;2024-01-15T09:48:31;0.90;99.90
45012;DHT22;63444;48.148;11.542;2024-01-15T09:51:01;1.40;99.90
45012;DHT22;63444;48.148;11.542;2024-01-15T09:53:27;1.20;99.90
45012;DHT22;63444;48.148;11.542;2024-01-15T09:55:53;0.90;99.90
45012;DHT22;63444;48.148;11.542;2024-01-15T09:58:19;1.10;99.90
45012;DHT22;63444;48.148;11.542;2024-01-15T10:00:47;1.00;99.90
45012;DHT22;63444;48.148;11.542;2024-01-15T10:03:15;1.00;99.90
45012;DHT22;63444;48.148;11.542;2024-01-15T10:05:41;1.00;99.90
45012;DHT22;63444;48.148;11.542;2024-01-15T10:08:07;1.10;99.90
45012;DHT22;63444;48.148;11.542;2024-01-15T10:10:33;1.40;99.90
45012;DHT22;63444;48.148;11.542;2024-01-15T10:13:01;1.20;99.90
45012;DHT22;63444;48.148;11.542;2024-01-15T10:15:27;1.20;99.90
45012;DHT22;63444;48.148;11.542;2024-01-15T10:17:52;1.20;99.90
45012;DHT22;63444;48.148;11.542;2024-01-15T10:20:18;1.20;99.90
45012;DHT22;63444;48.148;11.542;2024-01-15T10:22:45;1.20;99.90
45012;DHT22;63444;48.148;11.542;2024-01-15T10:25:13;1.20;99.90
45012;DHT22;63444;48.148;11.542;2024-01-15T10:27:39;1.30;99.90
45012;DHT22;63444;48.148;11.542;2024-01-15T10:30:06;1.60;99.90
45012;DHT22;63444;48.148;11.542;2024-01-15T10:32:32;1.30;99.90
45012;DHT22;63444;48.148;11.542;2024-01-15T10:34:57;1.30;99.90
45012;DHT22;63444;48.148;11.542;2024-01-15T10:37:24;1.50;99.90
45012;DHT22;63444;48.148;11.542;2024-01-15T10:39:50;1.40;99.90
45012;DHT22;63444;48.148;11.542;2024-01-15T10:42:16;1.40;99.90
45012;DHT22;63444;48.148;11.542;2024-01-15T10:44:44;1.40;99.90
45012;DHT22;63444;48.148;11.542;2024-01-15T10:47:12;1.80;99.90
45012;DHT22;63444;48.148;11.542;2024-01-15T10:49:39;1.40;99.90
45012;DHT22;63444;48.148;11.542;2024-01-15T10:52:05;1.40;99.90
45012;DHT22;63444;48.148;11.542;2024-01-15T10:54:32;1.40;99.90
45012;DHT22;63444;48.148;11.542;2024-01-15T10:56:57;1.50;99.90
45012;DHT22;63444;48.148;11.542;2024-01-15T10:59:24;1.50;99.90
45012;DHT22;63444;48.148;11.542;2024-01-15T11:01:53;1.50;99.90
45012;DHT22;63444;48.148;11.542;2024-01-15T11:04:20;1.60;99.90
45012;DHT22;63444;48.148;11.542;2024-01-15T11:06:49;1.60;99.90
45012;DHT22;63444;48.148;11.542;2024-01-15T11:09:15;2.10;99.90
45012;DHT22;63444;48.148;11.542;2024-01-15T11:11:47;1.60;99.90
45012;DHT22;63444;48.148;11.542;2024-01-15T11:14:48;1.60;99.90
45012;DHT22;63444;48.148;11.542;2024-01-15T11:17:15;1.70;99.90
45012;DHT22;63444;48.148;11.542;2024-01-15T11:19:48;1.70;99.90
45012;DHT22;63444;48.148;11.542;2024-01-15T11:25:35;1.80;99.90
45012;DHT22;63444;48.148;11.542;2024-01-15T11:28:03;1.80;99.90
45012;DHT22;63444;48.148;11.542;2024-01-15T11:30:29;1.80;99.90
45012;DHT22;63444;48.148;11.542;2024-01-15T11:32:55;1.80;99.90
45012;DHT22;63444;48.148;11.542;2024-01-15T11:35:20;2.20;99.90
45012;DHT22;63444;48.148;11.542;2024-01-15T11:42:58;1.80;99.90
45012;DHT22;63444;48.148;11.542;2024-01-15T11:45:24;1.80;99.90
45012;DHT22;63444;48.148;11.542;2024-01-15T11:48:14;1.70;99.90
45012;DHT22;63444;48.148;11.542;2024-01-15T11:50:50;1.70;99.90
45012;DHT22;63444;48.148;11.542;2024-01-15T11:53:48;1.80;99.90
45012;DHT22;63444;48.148;11.542;2024-01-15T11:56:17;1.90;99.90
45012;DHT22;63444;48.148;11.542;2024-01-15T11:58:43;1.90;99.90
45012;DHT22;63444;48.148;11.542;2024-01-15T12:01:10;1.90;99.90
45012;DHT22;63444;48.148;11.542;2024-01-15T12:03:36;2.00;99.90
45012;DHT22;63444;48.148;11.542;2024-01-15T12:06:04;2.00;99.90
45012;DHT22;63444;48.148;11.542;2024-01-15T12:08:30;2.00;99.90
45012;DHT22;63444;48.148;11.542;2024-01-15T12:10:56;2.00;99.90
45012;DHT22;63444;48.148;11.542;2024-01-15T12:13:22;2.00;99.90
45012;DHT22;63444;48.148;11.542;2024-01-15T12:15:48;2.00;99.90
45012;DHT22;63444;48.148;11.542;2024-01-15T12:18:16;2.00;99.90
45012;DHT22;63444;48.148;11.542;2024-01-15T12:20:43;1.90;99.90
45012;DHT22;63444;48.148;11.542;2024-01-15T12:23:09;2.00;99.90
45012;DHT22;63444;48.148;11.542;2024-01-15T12:25:39;2.60;99.90
45012;DHT22;63444;48.148;11.542;2024-01-15T12:28:05;2.20;99.90
45012;DHT22;63444;48.148;11.542;2024-01-15T12:30:33;2.30;99.90
45012;DHT22;63444;48.148;11.542;2024-01-15T12:33:06;2.40;99.90
45012;DHT22;63444;48.148;11.542;2024-01-15T12:35:33;2.50;99.90
45012;DHT22;63444;48.148;11.542;2024-01-15T12:38:00;2.60;99.90
45012;DHT22;63444;48.148;11.542;2024-01-15T12:40:30;2.60;99.90
45012;DHT22;63444;48.148;11.542;2024-01-15T12:42:56;2.70;99.90
45012;DHT22;63444;48.148;11.542;2024-01-15T12:45:22;2.80;99.90
45012;DHT22;63444;48.148;11.542;2024-01-15T12:47:47;2.80;99.90
45012;DHT22;63444;48.148;11.542;2024-01-15T12:50:13;2.90;99.90
45012;DHT22;63444;48.148;11.542;2024-01-15T12:52:42;2.90;99.90
45012;DHT22;63444;48.148;11.542;2024-01-15T12:55:09;2.90;99.90
45012;DHT22;63444;48.148;11.542;2024-01-15T12:57:35;2.90;99.90
45012;DHT22;63444;48.148;11.542;2024-01-15T13:00:02;3.00;99.90
45012;DHT22;63444;48.148;11.542;2024-01-15T13:02:30;3.00;99.90
45012;DHT22;63444;48.148;11.542;2024-01-15T13:04:55;3.00;99.90
45012;DHT22;63444;48.148;11.542;2024-01-15T13:07:21;3.00;99.90
45012;DHT22;63444;48.148;11.542;2024-01-15T13:09:47;3.10;99.90
45012;DHT22;63444;48.148;11.542;2024-01-15T13:12:12;3.20;99.90
45012;DHT22;63444;48.148;11.542;2024-01-15T13:14:38;3.50;99.90
45012;DHT22;63444;48.148;11.542;2024-01-15T13:17:04;3.20;99.90
45012;DHT22;63444;48.148;11.542;2024-01-15T13:19:30;3.10;99.90
45012;DHT22;63444;48.148;11.542;2024-01-15T13:21:55;3.10;99.90
45012;DHT22;63444;48.148;11.542;2024-01-15T13:24:24;3.10;99.90
45012;DHT22;63444;48.148;11.542;2024-01-15T13:26:49;3.10;99.90
45012;DHT22;63444;48.148;11.542;2024-01-15T13:29:15;3.10;99.90
45012;DHT22;63444;48.148;11.542;2024-01-15T13:31:40;3.00;99.90
45012;DHT22;63444;48.148;11.542;2024-01-15T13:34:06;3.10;99.90
45012;DHT22;63444;48.148;11.542;2024-01-15T13:36:32;3.00;99.90
45012;DHT22;63444;48.148;11.542;2024-01-15T13:38:58;3.00;99.90
45012;DHT22;63444;48.148;11.542;2024-01-15T13:41:24;3.00;99.90
45012;DHT22;63444;48.148;11.542;2024-01-15T13:43:54;2.90;99.90
45012;DHT22;63444;48.148;11.542;2024-01-15T13:46:29;3.00;99.90
45012;DHT22;63444;48.148;11.542;2024-01-15T13:48:57;3.20;99.90
45012;DHT22;63444;48.148;11.542;2024-01-15T13:51:23;3.40;99.90
45012;DHT22;63444;48.148;11.542;2024-01-15T13:53:50;2.90;99.90
45012;DHT22;63444;48.148;11.542;2024-01-15T13:56:16;2.90;99.90
45012;DHT22;63444;48.148;11.542;2024-01-15T13:58:42;2.90;99.90
45012;DHT22;63444;48.148;11.542;2024-01-15T14:01:08;2.90;99.90
45012;DHT22;63444;48.148;11.542;2024-01-15T14:03:34;2.90;99.90
45012;DHT22;63444;48.148;11.542;2024-01-15T14:06:00;2.90;99.90
45012;DHT22;63444;48.148;11.542;2024-01-15T14:08:28;2.80;99.90
45012;DHT22;63444;48.148;11.542;2024-01-15T14:10:54;2.70;99.90
45012;DHT22;63444;48.148;11.542;2024-01-15T14:13:21;2.80;99.90
45012;DHT22;63444;48.148;11.542;2024-01-15T14:15:47;2.80;99.90
45012;DHT22;63444;48.148;11.542;2024-01-15T14:18:16;2.70;99.90
45012;DHT22;63444;48.148;11.542;2024-01-15T14:20:41;2.70;99.90
45012;DHT22;63444;48.148;11.542;2024-01-15T14:23:08;2.70;99.90
45012;DHT22;63444;48.148;11.542;2024-01-15T14:25:33;2.70;99.90
45012;DHT22;63444;48.148;11.542;2024-01-15T14:27:59;2.70;99.90
45012;DHT22;63444;48.148;11.542;2024-01-15T14:30:25;2.70;99.90
45012;DHT22;63444;48.148;11.542;2024-01-15T14:32:51;2.70;99.90
45012;DHT22;63444;48.148;11.542;2024-01-15T14:35:16;2.60;99.90
45012;DHT22;63444;48.148;11.542;2024-01-15T14:37:42;2.60;99.90
45012;DHT22;63444;48.148;11.542;2024-01-15T14:40:08;2.60;99.90
45012;DHT22;63444;48.148;11.542;2024-01-15T14:42:35;2.50;99.90
45012;DHT22;63444;48.148;11.542;2024-01-15T14:45:02;2.60;99.90
45012;DHT22;63444;48.148;11.542;2024-01-15T14:47:28;2.40;99.90
45012;DHT22;63444;48.148;11.542;2024-01-15T14:49:54;2.70;99.90
45012;DHT22;63444;48.148;11.542;2024-01-15T14:52:22;2.30;99.90
45012;DHT22;63444;48.148;11.542;2024-01-15T14:54:47;2.40;99.90
45012;DHT22;63444;48.148;11.542;2024-01-15T14:57:13;2.40;99.90
45012;DHT22;63444;48.148;11.542;2024-01-15T14:59:39;2.30;99.90
45012;DHT22;63444;48.148;11.542;2024-01-15T15:02:05;2.10;99.90
45012;DHT22;63444;48.148;11.542;2024-01-15T15:04:30;2.80;99.90
45012;DHT22;63444;48.148;11.542;2024-01-15T15:06:56;2.20;99.90
45012;DHT22;63444;48.148;11.542;2024-01-15T15:09:22;2.20;99.90
45012;DHT22;63444;48.148;11.542;2024-01-15T15:11:47;2.20;99.90
45012;DHT22;63444;48.148;11.542;2024-01-15T15:14:13;2.50;99.90
45012;DHT22;63444;48.148;11.542;2024-01-15T15:16:39;2.10;99.90
45012;DHT22;63444;48.148;11.542;2024-01-15T15:19:04;2.10;99.90
45012;DHT22;63444;48.148;11.542;2024-01-15T15:21:30;2.10;99.90
45012;DHT22;63444;48.148;11.542;2024-01-15T15:23:56;2.70;99.90
45012;DHT22;63444;48.148;11.542;2024-01-15T15:26:21;2.10;99.90
45012;DHT22;63444;48.148;11.542;2024-01-15T15:28:47;2.60;99.90
45012;DHT22;63444;48.148;11.542;2024-01-15T15:31:13;2.10;99.90
45012;DHT22;63444;48.148;11.542;2024-01-15T15:33:39;2.10;99.90